sensor_id;sensor_type;location;lat;lon;timestamp;P1;durP1;ratioP1;P2;durP2;ratioP2
9102;SDS011;4587;51.434;6.788;2023-02-18T00:00:04;15.60;;;13.33;;
9102;SDS011;4587;51.434;6.788;2023-02-18T00:02:31;14.53;;;13.13;;
9102;SDS011;4587;51.434;6.788;2023-02-18T00:04:57;13.57;;;12.17;;
9102;SDS011;4587;51.434;6.788;2023-02-18T00:07:23;15.37;;;12.43;;
9102;SDS011;4587;51.434;6.788;2023-02-18T00:09:49;13.93;;;12.53;;
9102;SDS011;4587;51.434;6.788;2023-02-18T00:12:14;13.03;;;11.73;;
9102;SDS011;4587;51.434;6.788;2023-02-18T00:14:40;13.73;;;12.50;;
9102;SDS011;4587;51.434;6.788;2023-02-18T00:17:05;14.00;;;12.60;;
9102;SDS011;4587;51.434;6.788;2023-02-18T00:19:31;14.50;;;13.00;;
9102;SDS011;4587;51.434;6.788;2023-02-18T00:21:56;14.43;;;13.07;;
9102;SDS011;4587;51.434;6.788;2023-02-18T00:24:22;15.20;;;13.70;;
9102;SDS011;4587;51.434;6.788;2023-02-18T00:26:51;17.17;;;13.53;;
9102;SDS011;4587;51.434;6.788;2023-02-18T00:29:17;16.13;;;14.43;;
9102;SDS011;4587;51.434;6.788;2023-02-18T00:31:43;16.07;;;14.60;;
9102;SDS011;4587;51.434;6.788;2023-02-18T00:34:10;18.07;;;16.17;;
9102;SDS011;4587;51.434;6.788;2023-02-18T00:36:36;16.97;;;15.17;;
9102;SDS011;4587;51.434;6.788;2023-02-18T00:39:03;20.30;;;18.20;;
9102;SDS011;4587;51.434;6.788;2023-02-18T00:41:32;18.60;;;16.57;;
9102;SDS011;4587;51.434;6.788;2023-02-18T00:43:59;15.70;;;14.13;;
9102;SDS011;4587;51.434;6.788;2023-02-18T00:46:25;17.53;;;15.87;;
9102;SDS011;4587;51.434;6.788;2023-02-18T00:48:51;20.03;;;16.43;;
9102;SDS011;4587;51.434;6.788;2023-02-18T00:51:17;17.33;;;15.57;;
9102;SDS011;4587;51.434;6.788;2023-02-18T00:53:43;16.77;;;15.07;;
9102;SDS011;4587;51.434;6.788;2023-02-18T00:56:08;18.90;;;14.80;;
9102;SDS011;4587;51.434;6.788;2023-02-18T00:58:34;17.70;;;15.77;;
9102;SDS011;4587;51.434;6.788;2023-02-18T01:01:01;17.83;;;15.07;;
9102;SDS011;4587;51.434;6.788;2023-02-18T01:03:28;17.40;;;15.20;;
9102;SDS011;4587;51.434;6.788;2023-02-18T01:05:53;17.03;;;15.30;;
9102;SDS011;4587;51.434;6.788;2023-02-18T01:08:19;17.00;;;15.30;;
9102;SDS011;4587;51.434;6.788;2023-02-18T01:10:46;17.17;;;15.03;;
9102;SDS011;4587;51.434;6.788;2023-02-18T01:13:14;20.17;;;18.07;;
9102;SDS011;4587;51.434;6.788;2023-02-18T01:15:40;26.10;;;22.70;;
9102;SDS011;4587;51.434;6.788;2023-02-18T01:18:07;23.13;;;20.70;;
9102;SDS011;4587;51.434;6.788;2023-02-18T01:20:34;26.03;;;20.93;;
9102;SDS011;4587;51.434;6.788;2023-02-18T01:23:01;19.57;;;17.10;;
9102;SDS011;4587;51.434;6.788;2023-02-18T01:25:27;19.80;;;17.83;;
9102;SDS011;4587;51.434;6.788;2023-02-18T01:27:53;15.87;;;14.27;;
9102;SDS011;4587;51.434;6.788;2023-02-18T01:30:19;19.07;;;17.03;;
9102;SDS011;4587;51.434;6.788;2023-02-18T01:32:45;17.80;;;16.00;;
9102;SDS011;4587;51.434;6.788;2023-02-18T01:35:15;17.70;;;15.93;;
9102;SDS011;4587;51.434;6.788;2023-02-18T01:37:44;16.50;;;14.77;;
9102;SDS011;4587;51.434;6.788;2023-02-18T01:40:11;16.23;;;14.63;;
9102;SDS011;4587;51.434;6.788;2023-02-18T01:42:38;15.27;;;13.77;;
9102;SDS011;4587;51.434;6.788;2023-02-18T01:47:54;15.20;;;13.37;;
9102;SDS011;4587;51.434;6.788;2023-02-18T01:50:20;15.40;;;13.80;;
9102;SDS011;4587;51.434;6.788;2023-02-18T01:52:45;14.43;;;12.93;;
9102;SDS011;4587;51.434;6.788;2023-02-18T01:55:11;17.57;;;15.73;;
9102;SDS011;4587;51.434;6.788;2023-02-18T01:57:37;14.87;;;13.37;;
9102;SDS011;4587;51.434;6.788;2023-02-18T02:00:07;13.37;;;11.80;;
9102;SDS011;4587;51.434;6.788;2023-02-18T02:02:39;13.40;;;12.00;;
9102;SDS011;4587;51.434;6.788;2023-02-18T02:05:09;12.27;;;11.10;;
9102;SDS011;4587;51.434;6.788;2023-02-18T02:07:35;12.77;;;11.47;;
9102;SDS011;4587;51.434;6.788;2023-02-18T02:10:01;12.47;;;11.20;;
9102;SDS011;4587;51.434;6.788;2023-02-18T02:15:54;10.77;;;9.77;;
9102;SDS011;4587;51.434;6.788;2023-02-18T02:21:22;10.20;;;9.20;;
9102;SDS011;4587;51.434;6.788;2023-02-18T02:27:09;11.13;;;10.03;;
9102;SDS011;4587;51.434;6.788;2023-02-18T02:35:28;11.20;;;10.20;;
9102;SDS011;4587;51.434;6.788;2023-02-18T02:38:05;10.63;;;9.70;;
9102;SDS011;4587;51.434;6.788;2023-02-18T02:41:19;10.20;;;9.30;;
9102;SDS011;4587;51.434;6.788;2023-02-18T02:43:45;10.67;;;9.57;;
9102;SDS011;4587;51.434;6.788;2023-02-18T02:46:39;10.73;;;9.30;;
9102;SDS011;4587;51.434;6.788;2023-02-18T02:52:16;10.70;;;9.60;;
9102;SDS011;4587;51.434;6.788;2023-02-18T02:54:52;10.97;;;9.67;;
9102;SDS011;4587;51.434;6.788;2023-02-18T02:59:45;11.73;;;10.73;;
9102;SDS011;4587;51.434;6.788;2023-02-18T03:05:02;11.23;;;10.23;;
9102;SDS011;4587;51.434;6.788;2023-02-18T03:08:04;11.57;;;10.47;;
9102;SDS011;4587;51.434;6.788;2023-02-18T03:10:52;11.53;;;10.30;;
9102;SDS011;4587;51.434;6.788;2023-02-18T03:19:18;11.60;;;10.60;;
9102;SDS011;4587;51.434;6.788;2023-02-18T03:24:40;12.37;;;11.17;;
9102;SDS011;4587;51.434;6.788;2023-02-18T03:27:13;12.40;;;11.27;;
9102;SDS011;4587;51.434;6.788;2023-02-18T03:29:44;13.00;;;11.70;;
9102;SDS011;4587;51.434;6.788;2023-02-18T03:32:13;13.40;;;12.10;;
9102;SDS011;4587;51.434;6.788;2023-02-18T03:34:43;13.80;;;12.50;;
9102;SDS011;4587;51.434;6.788;2023-02-18T03:37:12;13.23;;;12.00;;
9102;SDS011;4587;51.434;6.788;2023-02-18T03:39:40;13.83;;;12.43;;
9102;SDS011;4587;51.434;6.788;2023-02-18T03:42:08;14.00;;;12.60;;
9102;SDS011;4587;51.434;6.788;2023-02-18T03:44:34;14.37;;;13.07;;
9102;SDS011;4587;51.434;6.788;2023-02-18T03:47:00;14.27;;;12.87;;
9102;SDS011;4587;51.434;6.788;2023-02-18T03:49:25;14.20;;;12.80;;
9102;SDS011;4587;51.434;6.788;2023-02-18T03:51:51;15.30;;;13.83;;
9102;SDS011;4587;51.434;6.788;2023-02-18T03:54:16;15.80;;;14.20;;
9102;SDS011;4587;51.434;6.788;2023-02-18T03:56:42;14.63;;;13.33;;
9102;SDS011;4587;51.434;6.788;2023-02-18T03:59:08;15.40;;;13.80;;
9102;SDS011;4587;51.434;6.788;2023-02-18T04:01:35;14.73;;;13.40;;
9102;SDS011;4587;51.434;6.788;2023-02-18T04:04:00;14.97;;;13.53;;
9102;SDS011;4587;51.434;6.788;2023-02-18T04:06:27;14.23;;;12.83;;
9102;SDS011;4587;51.434;6.788;2023-02-18T04:08:52;14.00;;;12.53;;
9102;SDS011;4587;51.434;6.788;2023-02-18T04:11:18;13.83;;;12.43;;
9102;SDS011;4587;51.434;6.788;2023-02-18T04:13:44;14.37;;;12.93;;
9102;SDS011;4587;51.434;6.788;2023-02-18T04:16:09;14.27;;;12.70;;
9102;SDS011;4587;51.434;6.788;2023-02-18T04:18:35;12.77;;;11.57;;
9102;SDS011;4587;51.434;6.788;2023-02-18T04:21:00;13.33;;;11.67;;
9102;SDS011;4587;51.434;6.788;2023-02-18T04:23:26;12.17;;;10.97;;
9102;SDS011;4587;51.434;6.788;2023-02-18T04:25:51;13.03;;;11.63;;
9102;SDS011;4587;51.434;6.788;2023-02-18T04:28:17;12.20;;;11.00;;
9102;SDS011;4587;51.434;6.788;2023-02-18T04:30:43;11.20;;;10.00;;
9102;SDS011;4587;51.434;6.788;2023-02-18T04:33:10;11.10;;;10.00;;
9102;SDS011;4587;51.434;6.788;2023-02-18T04:35:35;11.53;;;9.80;;
9102;SDS011;4587;51.434;6.788;2023-02-18T04:38:02;11.40;;;8.87;;
9102;SDS011;4587;51.434;6.788;2023-02-18T04:40:28;10.53;;;8.40;;
9102;SDS011;4587;51.434;6.788;2023-02-18T04:42:55;9.67;;;8.67;;
9102;SDS011;4587;51.434;6.788;2023-02-18T04:45:25;8.97;;;7.67;;
9102;SDS011;4587;51.434;6.788;2023-02-18T04:47:52;8.80;;;7.90;;
9102;SDS011;4587;51.434;6.788;2023-02-18T04:50:17;7.93;;;7.13;;
9102;SDS011;4587;51.434;6.788;2023-02-18T04:52:44;8.30;;;7.23;;
9102;SDS011;4587;51.434;6.788;2023-02-18T04:55:10;7.60;;;6.57;;
9102;SDS011;4587;51.434;6.788;2023-02-18T04:57:35;7.00;;;6.30;;
9102;SDS011;4587;51.434;6.788;2023-02-18T05:00:01;6.90;;;6.20;;
9102;SDS011;4587;51.434;6.788;2023-02-18T05:02:30;6.40;;;4.97;;
9102;SDS011;4587;51.434;6.788;2023-02-18T05:04:56;5.07;;;4.53;;
9102;SDS011;4587;51.434;6.788;2023-02-18T05:07:22;5.17;;;4.67;;
9102;SDS011;4587;51.434;6.788;2023-02-18T05:09:47;4.90;;;3.73;;
9102;SDS011;4587;51.434;6.788;2023-02-18T05:12:13;4.30;;;3.90;;
9102;SDS011;4587;51.434;6.788;2023-02-18T05:14:38;3.60;;;3.10;;
9102;SDS011;4587;51.434;6.788;2023-02-18T05:17:04;3.57;;;2.73;;
9102;SDS011;4587;51.434;6.788;2023-02-18T05:19:29;2.80;;;2.60;;
9102;SDS011;4587;51.434;6.788;2023-02-18T05:21:55;2.50;;;2.30;;
9102;SDS011;4587;51.434;6.788;2023-02-18T05:24:20;2.40;;;2.20;;
9102;SDS011;4587;51.434;6.788;2023-02-18T05:26:46;2.20;;;2.00;;
9102;SDS011;4587;51.434;6.788;2023-02-18T05:29:11;2.60;;;2.40;;
9102;SDS011;4587;51.434;6.788;2023-02-18T05:31:37;2.33;;;2.13;;
9102;SDS011;4587;51.434;6.788;2023-02-18T05:34:03;2.40;;;2.20;;
9102;SDS011;4587;51.434;6.788;2023-02-18T05:36:28;2.40;;;2.20;;
9102;SDS011;4587;51.434;6.788;2023-02-18T05:38:54;2.80;;;2.60;;
9102;SDS011;4587;51.434;6.788;2023-02-18T05:41:19;2.90;;;2.70;;
9102;SDS011;4587;51.434;6.788;2023-02-18T05:43:45;2.80;;;2.60;;
9102;SDS011;4587;51.434;6.788;2023-02-18T05:46:29;2.40;;;2.20;;
9102;SDS011;4587;51.434;6.788;2023-02-18T05:48:55;2.90;;;2.50;;
9102;SDS011;4587;51.434;6.788;2023-02-18T05:51:20;2.50;;;2.30;;
9102;SDS011;4587;51.434;6.788;2023-02-18T05:53:46;2.33;;;2.20;;
9102;SDS011;4587;51.434;6.788;2023-02-18T05:56:11;2.20;;;2.00;;
9102;SDS011;4587;51.434;6.788;2023-02-18T05:58:37;2.63;;;2.30;;
9102;SDS011;4587;51.434;6.788;2023-02-18T06:01:02;3.73;;;2.53;;
9102;SDS011;4587;51.434;6.788;2023-02-18T06:03:28;3.03;;;2.73;;
9102;SDS011;4587;51.434;6.788;2023-02-18T06:05:53;2.40;;;2.20;;
9102;SDS011;4587;51.434;6.788;2023-02-18T06:08:19;2.73;;;2.53;;
9102;SDS011;4587;51.434;6.788;2023-02-18T06:10:45;3.07;;;2.67;;
9102;SDS011;4587;51.434;6.788;2023-02-18T06:13:11;3.07;;;2.67;;
9102;SDS011;4587;51.434;6.788;2023-02-18T06:15:37;3.10;;;2.50;;
9102;SDS011;4587;51.434;6.788;2023-02-18T06:18:03;2.50;;;2.30;;
9102;SDS011;4587;51.434;6.788;2023-02-18T06:20:29;3.83;;;2.37;;
9102;SDS011;4587;51.434;6.788;2023-02-18T06:22:54;5.20;;;2.63;;
9102;SDS011;4587;51.434;6.788;2023-02-18T06:25:20;2.50;;;2.30;;
9102;SDS011;4587;51.434;6.788;2023-02-18T06:27:45;2.60;;;2.40;;
9102;SDS011;4587;51.434;6.788;2023-02-18T06:30:11;2.63;;;2.43;;
9102;SDS011;4587;51.434;6.788;2023-02-18T06:32:37;2.67;;;2.33;;
9102;SDS011;4587;51.434;6.788;2023-02-18T06:35:02;2.60;;;2.40;;
9102;SDS011;4587;51.434;6.788;2023-02-18T06:37:28;3.00;;;2.70;;
9102;SDS011;4587;51.434;6.788;2023-02-18T06:39:53;3.50;;;2.63;;
9102;SDS011;4587;51.434;6.788;2023-02-18T06:42:19;3.20;;;2.90;;
9102;SDS011;4587;51.434;6.788;2023-02-18T06:44:44;3.20;;;2.90;;
9102;SDS011;4587;51.434;6.788;2023-02-18T06:47:10;4.23;;;3.07;;
9102;SDS011;4587;51.434;6.788;2023-02-18T06:49:35;3.27;;;2.97;;
9102;SDS011;4587;51.434;6.788;2023-02-18T06:52:03;3.67;;;2.97;;
9102;SDS011;4587;51.434;6.788;2023-02-18T06:54:28;3.73;;;3.07;;
9102;SDS011;4587;51.434;6.788;2023-02-18T06:56:54;3.47;;;3.03;;
9102;SDS011;4587;51.434;6.788;2023-02-18T06:59:20;4.23;;;2.93;;
9102;SDS011;4587;51.434;6.788;2023-02-18T07:01:46;4.13;;;3.17;;
9102;SDS011;4587;51.434;6.788;2023-02-18T07:04:11;3.23;;;2.80;;
9102;SDS011;4587;51.434;6.788;2023-02-18T07:06:37;2.90;;;2.60;;
9102;SDS011;4587;51.434;6.788;2023-02-18T07:09:03;5.30;;;2.63;;
9102;SDS011;4587;51.434;6.788;2023-02-18T07:11:29;3.37;;;2.57;;
9102;SDS011;4587;51.434;6.788;2023-02-18T07:13:54;3.30;;;2.50;;
9102;SDS011;4587;51.434;6.788;2023-02-18T07:16:20;2.90;;;2.40;;
9102;SDS011;4587;51.434;6.788;2023-02-18T07:18:45;3.30;;;2.37;;
9102;SDS011;4587;51.434;6.788;2023-02-18T07:21:11;3.47;;;2.40;;
9102;SDS011;4587;51.434;6.788;2023-02-18T07:23:37;3.07;;;2.30;;
9102;SDS011;4587;51.434;6.788;2023-02-18T07:26:04;2.53;;;1.90;;
9102;SDS011;4587;51.434;6.788;2023-02-18T07:28:30;4.07;;;2.17;;
9102;SDS011;4587;51.434;6.788;2023-02-18T07:30:56;3.37;;;2.17;;
9102;SDS011;4587;51.434;6.788;2023-02-18T07:33:22;2.40;;;1.90;;
9102;SDS011;4587;51.434;6.788;2023-02-18T07:35:51;3.40;;;1.90;;
9102;SDS011;4587;51.434;6.788;2023-02-18T07:38:27;2.00;;;1.80;;
9102;SDS011;4587;51.434;6.788;2023-02-18T07:40:53;5.00;;;2.00;;
9102;SDS011;4587;51.434;6.788;2023-02-18T07:43:20;2.33;;;1.50;;
9102;SDS011;4587;51.434;6.788;2023-02-18T07:45:46;1.40;;;1.30;;
9102;SDS011;4587;51.434;6.788;2023-02-18T07:48:12;3.10;;;1.70;;
9102;SDS011;4587;51.434;6.788;2023-02-18T07:50:39;1.33;;;1.13;;
9102;SDS011;4587;51.434;6.788;2023-02-18T07:53:05;1.43;;;1.00;;
9102;SDS011;4587;51.434;6.788;2023-02-18T07:55:31;1.40;;;1.20;;
9102;SDS011;4587;51.434;6.788;2023-02-18T07:58:22;1.20;;;1.00;;
9102;SDS011;4587;51.434;6.788;2023-02-18T08:00:50;1.93;;;1.40;;
9102;SDS011;4587;51.434;6.788;2023-02-18T08:03:17;1.30;;;1.20;;
9102;SDS011;4587;51.434;6.788;2023-02-18T08:05:44;2.80;;;1.37;;
9102;SDS011;4587;51.434;6.788;2023-02-18T08:08:12;1.90;;;1.30;;
9102;SDS011;4587;51.434;6.788;2023-02-18T08:10:39;2.57;;;1.60;;
9102;SDS011;4587;51.434;6.788;2023-02-18T08:13:06;1.50;;;1.40;;
9102;SDS011;4587;51.434;6.788;2023-02-18T08:15:32;2.47;;;1.60;;
9102;SDS011;4587;51.434;6.788;2023-02-18T08:17:58;1.50;;;1.40;;
9102;SDS011;4587;51.434;6.788;2023-02-18T08:20:23;1.80;;;1.20;;
9102;SDS011;4587;51.434;6.788;2023-02-18T08:22:49;1.73;;;1.17;;
9102;SDS011;4587;51.434;6.788;2023-02-18T08:25:14;2.17;;;1.50;;
9102;SDS011;4587;51.434;6.788;2023-02-18T08:27:40;2.77;;;1.40;;
9102;SDS011;4587;51.434;6.788;2023-02-18T08:30:06;2.20;;;1.40;;
9102;SDS011;4587;51.434;6.788;2023-02-18T08:32:32;3.03;;;1.50;;
9102;SDS011;4587;51.434;6.788;2023-02-18T08:34:57;2.00;;;1.50;;
9102;SDS011;4587;51.434;6.788;2023-02-18T08:37:23;3.10;;;1.53;;
9102;SDS011;4587;51.434;6.788;2023-02-18T08:39:49;2.57;;;1.57;;
9102;SDS011;4587;51.434;6.788;2023-02-18T08:42:15;3.17;;;2.00;;
9102;SDS011;4587;51.434;6.788;2023-02-18T08:44:40;5.30;;;1.77;;
9102;SDS011;4587;51.434;6.788;2023-02-18T08:47:06;4.90;;;2.13;;
9102;SDS011;4587;51.434;6.788;2023-02-18T08:49:31;4.37;;;2.27;;
9102;SDS011;4587;51.434;6.788;2023-02-18T08:51:57;3.87;;;2.30;;
9102;SDS011;4587;51.434;6.788;2023-02-18T08:54:23;5.57;;;2.20;;
9102;SDS011;4587;51.434;6.788;2023-02-18T08:56:48;8.53;;;2.73;;
9102;SDS011;4587;51.434;6.788;2023-02-18T08:59:14;6.23;;;2.23;;
9102;SDS011;4587;51.434;6.788;2023-02-18T09:01:39;5.43;;;2.23;;
9102;SDS011;4587;51.434;6.788;2023-02-18T09:04:05;7.90;;;2.60;;
9102;SDS011;4587;51.434;6.788;2023-02-18T09:06:30;9.13;;;2.67;;
9102;SDS011;4587;51.434;6.788;2023-02-18T09:08:56;6.97;;;2.30;;
9102;SDS011;4587;51.434;6.788;2023-02-18T09:11:22;8.10;;;2.03;;
9102;SDS011;4587;51.434;6.788;2023-02-18T09:13:47;6.07;;;2.03;;
9102;SDS011;4587;51.434;6.788;2023-02-18T09:16:14;7.73;;;2.20;;
9102;SDS011;4587;51.434;6.788;2023-02-18T09:18:44;8.77;;;2.47;;
9102;SDS011;4587;51.434;6.788;2023-02-18T09:21:11;10.60;;;2.70;;
9102;SDS011;4587;51.434;6.788;2023-02-18T09:23:39;7.43;;;2.30;;
9102;SDS011;4587;51.434;6.788;2023-02-18T09:26:06;7.37;;;2.43;;
9102;SDS011;4587;51.434;6.788;2023-02-18T09:28:34;10.87;;;2.70;;
9102;SDS011;4587;51.434;6.788;2023-02-18T09:31:03;8.90;;;2.80;;
9102;SDS011;4587;51.434;6.788;2023-02-18T09:33:30;8.40;;;2.63;;
9102;SDS011;4587;51.434;6.788;2023-02-18T09:35:58;9.20;;;3.00;;
9102;SDS011;4587;51.434;6.788;2023-02-18T09:38:25;7.27;;;2.50;;
9102;SDS011;4587;51.434;6.788;2023-02-18T09:40:51;10.20;;;2.70;;
9102;SDS011;4587;51.434;6.788;2023-02-18T09:43:23;10.83;;;2.73;;
9102;SDS011;4587;51.434;6.788;2023-02-18T09:46:01;9.40;;;3.07;;
9102;SDS011;4587;51.434;6.788;2023-02-18T09:48:30;8.63;;;2.80;;
9102;SDS011;4587;51.434;6.788;2023-02-18T09:50:58;8.70;;;2.87;;
9102;SDS011;4587;51.434;6.788;2023-02-18T09:53:24;6.03;;;2.60;;
9102;SDS011;4587;51.434;6.788;2023-02-18T09:55:53;10.30;;;3.07;;
9102;SDS011;4587;51.434;6.788;2023-02-18T09:58:24;12.37;;;2.93;;
9102;SDS011;4587;51.434;6.788;2023-02-18T10:00:56;9.10;;;2.50;;
9102;SDS011;4587;51.434;6.788;2023-02-18T10:03:29;12.17;;;3.07;;
9102;SDS011;4587;51.434;6.788;2023-02-18T10:08:28;9.20;;;2.60;;
9102;SDS011;4587;51.434;6.788;2023-02-18T10:11:02;11.20;;;2.80;;
9102;SDS011;4587;51.434;6.788;2023-02-18T10:13:29;10.43;;;2.40;;
9102;SDS011;4587;51.434;6.788;2023-02-18T10:15:56;7.73;;;2.30;;
9102;SDS011;4587;51.434;6.788;2023-02-18T10:21:09;9.83;;;3.07;;
9102;SDS011;4587;51.434;6.788;2023-02-18T10:23:39;9.83;;;2.83;;
9102;SDS011;4587;51.434;6.788;2023-02-18T10:26:09;9.77;;;2.60;;
9102;SDS011;4587;51.434;6.788;2023-02-18T10:28:39;10.90;;;2.90;;
9102;SDS011;4587;51.434;6.788;2023-02-18T10:31:06;9.70;;;3.20;;
9102;SDS011;4587;51.434;6.788;2023-02-18T10:33:35;8.33;;;3.27;;
9102;SDS011;4587;51.434;6.788;2023-02-18T10:47:33;12.70;;;3.07;;
9102;SDS011;4587;51.434;6.788;2023-02-18T10:50:10;8.80;;;3.03;;
9102;SDS011;4587;51.434;6.788;2023-02-18T10:52:42;12.13;;;3.20;;
9102;SDS011;4587;51.434;6.788;2023-02-18T10:55:11;8.63;;;2.57;;
9102;SDS011;4587;51.434;6.788;2023-02-18T10:57:50;5.17;;;2.47;;
9102;SDS011;4587;51.434;6.788;2023-02-18T11:00:19;12.97;;;3.07;;
9102;SDS011;4587;51.434;6.788;2023-02-18T11:03:10;7.90;;;2.87;;
9102;SDS011;4587;51.434;6.788;2023-02-18T11:05:43;8.97;;;3.30;;
9102;SDS011;4587;51.434;6.788;2023-02-18T11:08:13;11.23;;;3.33;;
9102;SDS011;4587;51.434;6.788;2023-02-18T11:10:44;8.57;;;2.83;;
9102;SDS011;4587;51.434;6.788;2023-02-18T11:13:11;8.63;;;2.83;;
9102;SDS011;4587;51.434;6.788;2023-02-18T11:15:53;8.07;;;2.93;;
9102;SDS011;4587;51.434;6.788;2023-02-18T11:18:26;9.80;;;3.10;;
9102;SDS011;4587;51.434;6.788;2023-02-18T11:20:56;11.80;;;3.37;;
9102;SDS011;4587;51.434;6.788;2023-02-18T11:23:23;8.70;;;3.07;;
9102;SDS011;4587;51.434;6.788;2023-02-18T11:28:28;7.90;;;2.90;;
9102;SDS011;4587;51.434;6.788;2023-02-18T11:31:00;7.60;;;3.10;;
9102;SDS011;4587;51.434;6.788;2023-02-18T11:33:40;8.33;;;3.00;;
9102;SDS011;4587;51.434;6.788;2023-02-18T11:36:33;8.73;;;2.90;;
9102;SDS011;4587;51.434;6.788;2023-02-18T11:39:03;5.73;;;2.63;;
9102;SDS011;4587;51.434;6.788;2023-02-18T11:41:41;8.07;;;2.73;;
9102;SDS011;4587;51.434;6.788;2023-02-18T11:49:37;7.33;;;3.30;;
9102;SDS011;4587;51.434;6.788;2023-02-18T11:52:18;6.70;;;3.00;;
9102;SDS011;4587;51.434;6.788;2023-02-18T11:54:58;6.63;;;2.43;;
9102;SDS011;4587;51.434;6.788;2023-02-18T11:57:24;11.03;;;3.70;;
9102;SDS011;4587;51.434;6.788;2023-02-18T11:59:51;6.87;;;2.87;;
9102;SDS011;4587;51.434;6.788;2023-02-18T12:02:27;7.50;;;2.97;;
9102;SDS011;4587;51.434;6.788;2023-02-18T12:05:03;6.60;;;2.80;;
9102;SDS011;4587;51.434;6.788;2023-02-18T12:10:53;6.73;;;2.70;;
9102;SDS011;4587;51.434;6.788;2023-02-18T12:13:06;6.37;;;3.00;;
9102;SDS011;4587;51.434;6.788;2023-02-18T12:15:45;5.20;;;2.50;;
9102;SDS011;4587;51.434;6.788;2023-02-18T12:18:26;9.20;;;3.10;;
9102;SDS011;4587;51.434;6.788;2023-02-18T12:21:22;8.27;;;3.47;;
9102;SDS011;4587;51.434;6.788;2023-02-18T12:46:20;7.83;;;3.67;;
9102;SDS011;4587;51.434;6.788;2023-02-18T12:48:57;6.30;;;3.43;;
9102;SDS011;4587;51.434;6.788;2023-02-18T12:51:39;6.97;;;3.27;;
9102;SDS011;4587;51.434;6.788;2023-02-18T13:08:08;5.23;;;3.10;;
9102;SDS011;4587;51.434;6.788;2023-02-18T13:16:33;5.73;;;3.80;;
9102;SDS011;4587;51.434;6.788;2023-02-18T13:19:04;4.90;;;3.60;;
9102;SDS011;4587;51.434;6.788;2023-02-18T13:21:53;5.45;;;3.45;;
9102;SDS011;4587;51.434;6.788;2023-02-18T13:24:36;6.13;;;3.77;;
9102;SDS011;4587;51.434;6.788;2023-02-18T13:32:53;4.93;;;3.63;;
9102;SDS011;4587;51.434;6.788;2023-02-18T13:35:30;5.40;;;3.70;;
9102;SDS011;4587;51.434;6.788;2023-02-18T13:38:02;9.97;;;4.60;;
9102;SDS011;4587;51.434;6.788;2023-02-18T13:40:50;7.83;;;4.67;;
9102;SDS011;4587;51.434;6.788;2023-02-18T13:51:32;12.23;;;7.20;;
9102;SDS011;4587;51.434;6.788;2023-02-18T13:54:08;12.00;;;6.60;;
9102;SDS011;4587;51.434;6.788;2023-02-18T13:59:42;11.00;;;6.50;;
9102;SDS011;4587;51.434;6.788;2023-02-18T14:09:57;11.57;;;7.60;;
9102;SDS011;4587;51.434;6.788;2023-02-18T14:12:37;12.10;;;7.63;;
9102;SDS011;4587;51.434;6.788;2023-02-18T14:17:43;10.70;;;7.50;;
9102;SDS011;4587;51.434;6.788;2023-02-18T14:25:48;12.60;;;7.70;;
9102;SDS011;4587;51.434;6.788;2023-02-18T14:33:36;13.83;;;8.50;;
9102;SDS011;4587;51.434;6.788;2023-02-18T14:41:39;15.63;;;8.70;;
9102;SDS011;4587;51.434;6.788;2023-02-18T14:49:31;13.07;;;8.73;;
9102;SDS011;4587;51.434;6.788;2023-02-18T14:52:00;14.80;;;9.50;;
9102;SDS011;4587;51.434;6.788;2023-02-18T14:54:28;16.40;;;8.63;;
9102;SDS011;4587;51.434;6.788;2023-02-18T14:56:56;13.57;;;9.30;;
9102;SDS011;4587;51.434;6.788;2023-02-18T14:59:25;16.87;;;9.83;;
9102;SDS011;4587;51.434;6.788;2023-02-18T15:01:57;11.73;;;9.27;;
9102;SDS011;4587;51.434;6.788;2023-02-18T15:04:24;12.80;;;9.57;;
9102;SDS011;4587;51.434;6.788;2023-02-18T15:07:02;14.30;;;9.27;;
9102;SDS011;4587;51.434;6.788;2023-02-18T15:09:29;11.33;;;8.93;;
9102;SDS011;4587;51.434;6.788;2023-02-18T15:11:58;11.33;;;8.93;;
9102;SDS011;4587;51.434;6.788;2023-02-18T15:14:31;16.00;;;8.90;;
9102;SDS011;4587;51.434;6.788;2023-02-18T15:17:05;12.47;;;8.93;;
9102;SDS011;4587;51.434;6.788;2023-02-18T15:19:39;14.13;;;9.10;;
9102;SDS011;4587;51.434;6.788;2023-02-18T15:22:16;12.63;;;8.77;;
9102;SDS011;4587;51.434;6.788;2023-02-18T15:24:46;12.10;;;8.50;;
9102;SDS011;4587;51.434;6.788;2023-02-18T15:27:29;13.03;;;8.43;;
9102;SDS011;4587;51.434;6.788;2023-02-18T15:30:02;14.57;;;8.97;;
9102;SDS011;4587;51.434;6.788;2023-02-18T15:32:43;12.90;;;8.77;;
9102;SDS011;4587;51.434;6.788;2023-02-18T15:35:15;12.13;;;8.43;;
9102;SDS011;4587;51.434;6.788;2023-02-18T15:37:43;15.60;;;8.37;;
9102;SDS011;4587;51.434;6.788;2023-02-18T15:40:13;13.07;;;8.43;;
9102;SDS011;4587;51.434;6.788;2023-02-18T15:42:40;12.57;;;9.00;;
9102;SDS011;4587;51.434;6.788;2023-02-18T15:45:14;15.33;;;9.50;;
9102;SDS011;4587;51.434;6.788;2023-02-18T15:47:52;10.73;;;9.20;;
9102;SDS011;4587;51.434;6.788;2023-02-18T15:50:43;12.23;;;8.90;;
9102;SDS011;4587;51.434;6.788;2023-02-18T15:53:16;11.87;;;9.07;;
9102;SDS011;4587;51.434;6.788;2023-02-18T15:55:45;11.00;;;9.30;;
9102;SDS011;4587;51.434;6.788;2023-02-18T15:58:26;12.80;;;8.73;;
9102;SDS011;4587;51.434;6.788;2023-02-18T16:00:59;11.43;;;9.27;;
9102;SDS011;4587;51.434;6.788;2023-02-18T16:11:38;14.63;;;9.53;;
9102;SDS011;4587;51.434;6.788;2023-02-18T16:14:19;14.23;;;9.27;;
9102;SDS011;4587;51.434;6.788;2023-02-18T16:17:02;16.27;;;9.20;;
9102;SDS011;4587;51.434;6.788;2023-02-18T16:19:46;12.90;;;8.63;;
9102;SDS011;4587;51.434;6.788;2023-02-18T16:24:59;12.80;;;8.43;;
9102;SDS011;4587;51.434;6.788;2023-02-18T16:27:34;12.83;;;9.27;;
9102;SDS011;4587;51.434;6.788;2023-02-18T16:30:03;17.23;;;9.37;;
9102;SDS011;4587;51.434;6.788;2023-02-18T16:32:40;14.30;;;9.47;;
9102;SDS011;4587;51.434;6.788;2023-02-18T16:35:06;14.20;;;9.50;;
9102;SDS011;4587;51.434;6.788;2023-02-18T16:37:32;12.60;;;9.90;;
9102;SDS011;4587;51.434;6.788;2023-02-18T16:42:47;12.50;;;8.37;;
9102;SDS011;4587;51.434;6.788;2023-02-18T16:45:12;11.13;;;7.97;;
9102;SDS011;4587;51.434;6.788;2023-02-18T16:47:38;12.93;;;8.10;;
9102;SDS011;4587;51.434;6.788;2023-02-18T16:50:04;13.30;;;8.73;;
9102;SDS011;4587;51.434;6.788;2023-02-18T16:52:37;12.37;;;7.93;;
9102;SDS011;4587;51.434;6.788;2023-02-18T16:55:07;13.63;;;7.80;;
9102;SDS011;4587;51.434;6.788;2023-02-18T16:57:44;10.23;;;7.87;;
9102;SDS011;4587;51.434;6.788;2023-02-18T17:00:11;10.17;;;7.93;;
9102;SDS011;4587;51.434;6.788;2023-02-18T17:02:37;13.77;;;7.80;;
9102;SDS011;4587;51.434;6.788;2023-02-18T17:05:03;13.20;;;8.00;;
9102;SDS011;4587;51.434;6.788;2023-02-18T17:07:29;14.67;;;8.20;;
9102;SDS011;4587;51.434;6.788;2023-02-18T17:09:56;14.07;;;8.77;;
9102;SDS011;4587;51.434;6.788;2023-02-18T17:12:23;13.43;;;7.93;;
9102;SDS011;4587;51.434;6.788;2023-02-18T17:14:49;11.97;;;8.13;;
9102;SDS011;4587;51.434;6.788;2023-02-18T17:17:16;12.07;;;8.00;;
9102;SDS011;4587;51.434;6.788;2023-02-18T17:19:46;13.07;;;8.33;;
9102;SDS011;4587;51.434;6.788;2023-02-18T17:22:12;14.47;;;8.40;;
9102;SDS011;4587;51.434;6.788;2023-02-18T17:24:40;12.97;;;7.53;;
9102;SDS011;4587;51.434;6.788;2023-02-18T17:27:07;13.23;;;8.03;;
9102;SDS011;4587;51.434;6.788;2023-02-18T17:29:34;12.17;;;7.93;;
9102;SDS011;4587;51.434;6.788;2023-02-18T17:32:00;11.53;;;7.80;;
9102;SDS011;4587;51.434;6.788;2023-02-18T17:34:27;12.00;;;8.10;;
9102;SDS011;4587;51.434;6.788;2023-02-18T17:36:55;11.93;;;8.40;;
9102;SDS011;4587;51.434;6.788;2023-02-18T17:39:21;12.43;;;7.93;;
9102;SDS011;4587;51.434;6.788;2023-02-18T17:41:48;14.20;;;8.47;;
9102;SDS011;4587;51.434;6.788;2023-02-18T17:44:14;11.97;;;8.20;;
9102;SDS011;4587;51.434;6.788;2023-02-18T17:46:45;11.73;;;8.80;;
9102;SDS011;4587;51.434;6.788;2023-02-18T17:49:11;12.63;;;8.63;;
9102;SDS011;4587;51.434;6.788;2023-02-18T17:51:36;13.30;;;7.70;;
9102;SDS011;4587;51.434;6.788;2023-02-18T17:54:08;11.60;;;7.90;;
9102;SDS011;4587;51.434;6.788;2023-02-18T17:56:39;12.83;;;8.40;;
9102;SDS011;4587;51.434;6.788;2023-02-18T17:59:05;10.83;;;8.00;;
9102;SDS011;4587;51.434;6.788;2023-02-18T18:01:31;10.63;;;7.80;;
9102;SDS011;4587;51.434;6.788;2023-02-18T18:03:56;13.10;;;8.10;;